createdAt,value
2022-11-20T00:00:01.942Z,100.00
2022-11-20T00:01:20.551Z,100.00
2022-11-20T00:02:22.097Z,100.00
2022-11-20T00:03:23.947Z,100.00
2022-11-20T00:04:25.442Z,100.00
2022-11-20T00:05:26.958Z,100.00
2022-11-20T00:06:29.222Z,100.00
2022-11-20T00:07:30.753Z,100.00
2022-11-20T00:08:32.615Z,100.00
2022-11-20T00:09:34.247Z,100.00
2022-11-20T00:10:39.364Z,100.00
2022-11-20T00:11:40.927Z,100.00
2022-11-20T00:12:42.418Z,100.00
2022-11-20T00:13:45.612Z,100.00
2022-11-20T00:14:47.089Z,100.00
2022-11-20T00:15:48.634Z,100.00
2022-11-20T00:16:50.175Z,100.00
2022-11-20T00:17:51.708Z,100.00
2022-11-20T00:18:54.171Z,100.00
2022-11-20T00:19:55.700Z,100.00
2022-11-20T00:21:09.048Z,100.00
2022-11-20T00:22:10.588Z,100.00
2022-11-20T00:23:12.131Z,100.00
2022-11-20T00:24:13.833Z,100.00
2022-11-20T00:25:15.525Z,100.00
2022-11-20T00:26:18.744Z,100.00
2022-11-20T00:27:20.223Z,100.00
2022-11-20T00:28:21.792Z,100.00
2022-11-20T00:29:23.563Z,100.00
2022-11-20T00:30:25.183Z,100.00
2022-11-20T00:31:27.341Z,100.00
2022-11-20T00:32:28.892Z,100.00
2022-11-20T00:33:30.513Z,100.00
2022-11-20T00:34:32.070Z,100.00
2022-11-20T00:35:33.601Z,100.00
2022-11-20T00:36:35.376Z,100.00
2022-11-20T00:37:36.906Z,100.00
2022-11-20T00:38:38.516Z,100.00
2022-11-20T00:39:39.992Z,100.00
2022-11-20T00:40:41.531Z,100.00
2022-11-20T00:41:43.075Z,100.00
2022-11-20T00:42:44.616Z,100.00
2022-11-20T00:43:46.142Z,100.00
2022-11-20T00:44:47.705Z,100.00
2022-11-20T00:45:49.252Z,100.00
2022-11-20T00:46:50.788Z,100.00
2022-11-20T00:47:52.317Z,100.00
2022-11-20T00:48:53.961Z,100.00
2022-11-20T00:49:55.505Z,100.00
2022-11-20T00:50:57.369Z,100.00
2022-11-20T00:51:58.865Z,100.00
2022-11-20T00:53:00.424Z,100.00
2022-11-20T00:54:01.983Z,100.00
2022-11-20T00:55:03.642Z,100.00
2022-11-20T00:56:07.645Z,100.00
2022-11-20T00:57:09.188Z,100.00
2022-11-20T00:58:14.305Z,100.00
2022-11-20T00:59:16.059Z,100.00
2022-11-20T01:00:17.721Z,100.00
2022-11-20T01:01:25.225Z,100.00
2022-11-20T01:02:27.019Z,100.00
2022-11-20T01:03:28.990Z,100.00
2022-11-20T01:04:30.738Z,100.00
2022-11-20T01:05:35.743Z,100.00
2022-11-20T01:06:38.733Z,100.00
2022-11-20T01:07:40.308Z,100.00
2022-11-20T01:08:42.156Z,100.00
2022-11-20T01:09:43.672Z,100.00
2022-11-20T01:10:45.143Z,100.00
2022-11-20T01:11:46.739Z,100.00
2022-11-20T01:12:48.228Z,100.00
2022-11-20T01:13:51.512Z,100.00
2022-11-20T01:14:53.025Z,100.00
2022-11-20T01:15:54.493Z,100.00
2022-11-20T01:16:56.008Z,100.00
2022-11-20T01:17:57.541Z,100.00
2022-11-20T01:19:01.448Z,100.00
2022-11-20T01:20:03.094Z,100.00
2022-11-20T01:21:07.255Z,100.00
2022-11-20T01:22:08.740Z,100.00
2022-11-20T01:23:10.262Z,100.00
2022-11-20T01:24:14.698Z,100.00
2022-11-20T01:25:16.216Z,100.00
2022-11-20T01:26:20.884Z,100.00
2022-11-20T01:27:22.395Z,100.00
2022-11-20T01:28:23.916Z,100.00
2022-11-20T01:29:25.922Z,100.00
2022-11-20T01:30:27.427Z,100.00
2022-11-20T01:31:32.233Z,100.00
2022-11-20T01:32:33.745Z,100.00
2022-11-20T01:33:35.270Z,100.00
2022-11-20T01:34:36.778Z,100.00
2022-11-20T01:35:38.785Z,100.00
2022-11-20T01:36:41.641Z,100.00
2022-11-20T01:37:43.183Z,100.00
2022-11-20T01:38:45.100Z,100.00
2022-11-20T01:39:47.506Z,100.00
2022-11-20T01:40:56.149Z,100.00
2022-11-20T01:41:57.742Z,100.00
2022-11-20T01:43:14.617Z,100.00
2022-11-20T01:44:18.564Z,100.00
2022-11-20T01:45:48.458Z,100.00
2022-11-20T01:47:05.055Z,100.00
2022-11-20T01:48:06.905Z,100.00
2022-11-20T01:49:19.609Z,100.00
2022-11-20T01:50:29.101Z,100.00
2022-11-20T01:51:32.731Z,100.00
2022-11-20T01:52:52.478Z,100.00
2022-11-20T01:53:56.876Z,100.00
2022-11-20T01:55:04.559Z,100.00
2022-11-20T01:56:11.199Z,100.00
2022-11-20T01:57:13.527Z,100.00
2022-11-20T01:58:15.101Z,100.00
2022-11-20T01:59:19.125Z,100.00
2022-11-20T02:00:21.796Z,100.00
2022-11-20T02:01:23.395Z,100.00
2022-11-20T02:02:25.129Z,100.00
2022-11-20T02:03:27.083Z,100.00
2022-11-20T02:04:28.631Z,100.00
2022-11-20T02:06:02.530Z,100.00
2022-11-20T02:07:05.609Z,100.00
2022-11-20T02:08:07.796Z,100.00
2022-11-20T02:09:09.344Z,100.00
2022-11-20T02:10:10.909Z,100.00
2022-11-20T02:11:12.428Z,100.00
2022-11-20T02:12:14.095Z,100.00
2022-11-20T02:13:16.504Z,100.00
2022-11-20T02:14:18.206Z,100.00
2022-11-20T02:15:19.752Z,100.00
2022-11-20T02:16:27.197Z,100.00
2022-11-20T02:17:28.827Z,100.00
2022-11-20T02:18:31.031Z,100.00
2022-11-20T02:19:32.829Z,100.00
2022-11-20T02:20:34.498Z,100.00
2022-11-20T02:22:08.532Z,100.00
2022-11-20T02:23:15.245Z,100.00
2022-11-20T02:24:19.140Z,100.00
2022-11-20T02:25:21.045Z,100.00
2022-11-20T02:26:24.787Z,100.00
2022-11-20T02:27:27.306Z,100.00
2022-11-20T02:28:29.104Z,100.00
2022-11-20T02:29:38.237Z,100.00
2022-11-20T02:30:39.778Z,100.00
2022-11-20T02:31:43.530Z,100.00
2022-11-20T02:32:45.156Z,100.00
2022-11-20T02:33:46.716Z,100.00
2022-11-20T02:34:48.620Z,100.00
2022-11-20T02:35:50.251Z,100.00
2022-11-20T02:36:53.823Z,100.00
2022-11-20T02:37:57.429Z,100.00
2022-11-20T02:38:58.917Z,100.00
2022-11-20T02:40:00.605Z,100.00
2022-11-20T02:41:02.107Z,100.00
2022-11-20T02:42:03.808Z,100.00
2022-11-20T02:43:05.653Z,100.00
2022-11-20T02:44:07.244Z,100.00
2022-11-20T02:45:09.459Z,100.00
2022-11-20T02:46:10.976Z,100.00
2022-11-20T02:47:12.511Z,100.00
2022-11-20T02:48:14.032Z,100.00
2022-11-20T02:49:15.528Z,100.00
2022-11-20T02:50:17.222Z,100.00
2022-11-20T02:51:18.911Z,100.00
2022-11-20T02:52:20.467Z,100.00
2022-11-20T02:53:22.005Z,100.00
2022-11-20T02:54:23.965Z,100.00
2022-11-20T02:55:25.441Z,100.00
2022-11-20T02:56:27.048Z,100.00
2022-11-20T02:57:28.533Z,100.00
2022-11-20T02:58:30.032Z,100.00
2022-11-20T02:59:31.483Z,100.00
2022-11-20T03:00:33.025Z,100.00
2022-11-20T03:01:34.697Z,100.00
2022-11-20T03:02:36.348Z,100.00
2022-11-20T03:03:37.849Z,100.00
2022-11-20T03:04:39.392Z,100.00
2022-11-20T03:05:40.936Z,100.00
2022-11-20T03:06:42.478Z,100.00
2022-11-20T03:07:44.820Z,100.00
2022-11-20T03:08:46.384Z,100.00
2022-11-20T03:09:47.864Z,100.00
2022-11-20T03:10:49.372Z,100.00
2022-11-20T03:11:50.917Z,100.00
2022-11-20T03:12:56.145Z,100.00
2022-11-20T03:13:57.721Z,100.00
2022-11-20T03:14:59.229Z,100.00
2022-11-20T03:16:16.416Z,100.00
2022-11-20T03:17:17.914Z,100.00
2022-11-20T03:18:19.424Z,100.00
2022-11-20T03:19:21.329Z,100.00
2022-11-20T03:20:23.533Z,100.00
2022-11-20T03:21:25.076Z,100.00
2022-11-20T03:22:26.616Z,100.00
2022-11-20T03:23:31.232Z,100.00
2022-11-20T03:24:32.775Z,100.00
2022-11-20T03:25:34.323Z,100.00
2022-11-20T03:26:36.206Z,100.00
2022-11-20T03:27:37.811Z,100.00
2022-11-20T03:28:39.456Z,100.00
2022-11-20T03:29:40.998Z,100.00
2022-11-20T03:30:42.473Z,100.00
2022-11-20T03:31:44.013Z,100.00
2022-11-20T03:32:45.531Z,100.00
2022-11-20T03:33:47.319Z,100.00
2022-11-20T03:34:48.812Z,100.00
2022-11-20T03:35:50.352Z,100.00
2022-11-20T03:36:51.832Z,100.00
2022-11-20T03:37:53.341Z,100.00
2022-11-20T03:38:56.210Z,100.00
2022-11-20T03:39:57.756Z,100.00
2022-11-20T03:41:01.756Z,100.00
2022-11-20T03:42:03.441Z,100.00
2022-11-20T03:43:04.955Z,100.00
2022-11-20T03:44:08.853Z,100.00
2022-11-20T03:45:10.598Z,100.00
2022-11-20T03:46:12.145Z,100.00
2022-11-20T03:47:13.659Z,100.00
2022-11-20T03:48:15.153Z,100.00
2022-11-20T03:49:16.652Z,100.00
2022-11-20T03:50:18.318Z,100.00
2022-11-20T03:51:23.980Z,100.00
2022-11-20T03:52:25.524Z,100.00
2022-11-20T03:53:27.013Z,100.00
2022-11-20T03:54:28.485Z,100.00
2022-11-20T03:55:30.006Z,100.00
2022-11-20T03:56:34.195Z,100.00
2022-11-20T03:57:35.670Z,100.00
2022-11-20T03:58:38.837Z,100.00
2022-11-20T03:59:40.317Z,100.00
2022-11-20T04:00:41.817Z,100.00
2022-11-20T04:01:48.328Z,100.00
2022-11-20T04:02:50.985Z,100.00
2022-11-20T04:03:54.019Z,100.00
2022-11-20T04:04:55.484Z,100.00
2022-11-20T04:06:02.779Z,100.00
2022-11-20T04:07:05.193Z,100.00
2022-11-20T04:08:06.748Z,100.00
2022-11-20T04:09:08.220Z,100.00
2022-11-20T04:10:09.833Z,100.00
2022-11-20T04:11:26.127Z,100.00
2022-11-20T04:12:27.584Z,100.00
2022-11-20T04:13:29.105Z,100.00
2022-11-20T04:14:30.643Z,100.00
2022-11-20T04:15:35.695Z,100.00
2022-11-20T04:16:39.799Z,100.00
2022-11-20T04:17:41.340Z,100.00
2022-11-20T04:18:43.192Z,100.00
2022-11-20T04:19:44.650Z,100.00
2022-11-20T04:20:46.145Z,100.00
2022-11-20T04:21:47.723Z,100.00
2022-11-20T04:22:49.262Z,100.00
2022-11-20T04:23:52.414Z,100.00
2022-11-20T04:24:53.960Z,100.00
2022-11-20T04:25:55.730Z,100.00
2022-11-20T04:26:57.188Z,100.00
2022-11-20T04:27:58.691Z,100.00
2022-11-20T04:29:00.639Z,100.00
2022-11-20T04:30:02.216Z,100.00
2022-11-20T04:31:09.506Z,100.00
2022-11-20T04:32:11.031Z,100.00
2022-11-20T04:33:12.578Z,100.00
2022-11-20T04:34:14.123Z,100.00
2022-11-20T04:35:15.732Z,100.00
2022-11-20T04:36:23.029Z,100.00
2022-11-20T04:37:24.549Z,100.00
2022-11-20T04:38:25.991Z,100.00
2022-11-20T04:39:27.570Z,100.00
2022-11-20T04:40:29.422Z,100.00
2022-11-20T04:41:33.358Z,100.00
2022-11-20T04:42:34.868Z,100.00
2022-11-20T04:43:36.365Z,100.00
2022-11-20T04:44:37.889Z,100.00
2022-11-20T04:45:39.389Z,100.00
2022-11-20T04:46:43.090Z,100.00
2022-11-20T04:47:44.626Z,100.00
2022-11-20T04:48:46.332Z,100.00
2022-11-20T04:49:48.108Z,100.00
2022-11-20T04:50:49.932Z,100.00
2022-11-20T04:51:54.419Z,100.00
2022-11-20T04:52:55.927Z,100.00
2022-11-20T04:53:57.473Z,100.00
2022-11-20T04:54:59.068Z,100.00
2022-11-20T04:56:06.041Z,100.00
2022-11-20T04:57:12.920Z,100.00
2022-11-20T04:58:16.646Z,100.00
2022-11-20T04:59:18.149Z,100.00
2022-11-20T05:00:19.886Z,100.00
2022-11-20T05:01:24.253Z,100.00
2022-11-20T05:02:25.889Z,100.00
2022-11-20T05:03:27.383Z,100.00
2022-11-20T05:04:28.870Z,100.00
2022-11-20T05:05:30.413Z,100.00
2022-11-20T05:06:32.727Z,100.00
2022-11-20T05:07:34.278Z,100.00
2022-11-20T05:08:35.966Z,100.00
2022-11-20T05:09:37.454Z,100.00
2022-11-20T05:10:38.948Z,100.00
2022-11-20T05:11:40.427Z,100.00
2022-11-20T05:12:42.341Z,100.00
2022-11-20T05:13:44.175Z,100.00
2022-11-20T05:14:45.951Z,100.00
2022-11-20T05:15:47.481Z,100.00
2022-11-20T05:16:49.129Z,100.00
2022-11-20T05:17:52.152Z,100.00
2022-11-20T05:18:54.875Z,100.00
2022-11-20T05:19:56.418Z,100.00
2022-11-20T05:20:59.398Z,100.00
2022-11-20T05:22:00.945Z,100.00
2022-11-20T05:23:03.412Z,100.00
2022-11-20T05:24:05.157Z,100.00
2022-11-20T05:25:06.964Z,100.00
2022-11-20T05:26:13.667Z,100.00
2022-11-20T05:27:15.414Z,100.00
2022-11-20T05:28:16.901Z,100.00
2022-11-20T05:29:18.815Z,100.00
2022-11-20T05:30:20.554Z,100.00
2022-11-20T05:31:27.812Z,100.00
2022-11-20T05:32:29.887Z,100.00
2022-11-20T05:33:31.356Z,100.00
2022-11-20T05:34:33.012Z,100.00
2022-11-20T05:35:34.510Z,100.00
2022-11-20T05:36:36.159Z,100.00
2022-11-20T05:37:37.711Z,100.00
2022-11-20T05:38:40.065Z,100.00
2022-11-20T05:39:41.607Z,100.00
2022-11-20T05:40:43.068Z,100.00
2022-11-20T05:41:44.589Z,100.00
2022-11-20T05:42:46.133Z,100.00
2022-11-20T05:43:49.521Z,100.00
2022-11-20T05:44:51.004Z,100.00
2022-11-20T05:45:54.349Z,100.00
2022-11-20T05:46:55.824Z,100.00
2022-11-20T05:48:01.057Z,100.00
2022-11-20T05:49:02.598Z,100.00
2022-11-20T05:50:04.406Z,100.00
2022-11-20T05:51:08.099Z,100.00
2022-11-20T05:52:09.642Z,100.00
2022-11-20T05:53:11.132Z,100.00
2022-11-20T05:54:12.709Z,100.00
2022-11-20T05:55:14.368Z,100.00
2022-11-20T05:56:18.887Z,100.00
2022-11-20T05:57:20.431Z,100.00
2022-11-20T05:58:21.943Z,100.00
2022-11-20T05:59:23.722Z,100.00
2022-11-20T06:00:25.355Z,100.00
2022-11-20T06:01:27.129Z,100.00
2022-11-20T06:02:28.731Z,100.00
2022-11-20T06:03:30.234Z,100.00
2022-11-20T06:04:31.784Z,100.00
2022-11-20T06:05:34.613Z,100.00
2022-11-20T06:06:36.156Z,100.00
2022-11-20T06:07:37.901Z,100.00
2022-11-20T06:08:39.450Z,100.00
2022-11-20T06:09:40.983Z,100.00
2022-11-20T06:10:42.517Z,100.00
2022-11-20T06:11:44.075Z,100.00
2022-11-20T06:12:45.585Z,100.00
2022-11-20T06:13:47.672Z,100.00
2022-11-20T06:14:49.155Z,100.00
2022-11-20T06:15:51.682Z,100.00
2022-11-20T06:16:53.245Z,100.00
2022-11-20T06:17:55.783Z,100.00
2022-11-20T06:18:57.333Z,100.00
2022-11-20T06:19:58.872Z,100.00
2022-11-20T06:21:05.729Z,100.00
2022-11-20T06:22:07.292Z,100.00
2022-11-20T06:23:08.869Z,100.00
2022-11-20T06:24:11.395Z,100.00
2022-11-20T06:25:12.936Z,100.00
2022-11-20T06:26:20.444Z,100.00
2022-11-20T06:27:21.961Z,100.00
2022-11-20T06:28:23.427Z,100.00
2022-11-20T06:29:26.812Z,100.00
2022-11-20T06:30:31.607Z,100.00
2022-11-20T06:31:33.151Z,100.00
2022-11-20T06:32:34.698Z,100.00
2022-11-20T06:33:36.239Z,100.00
2022-11-20T06:34:37.761Z,100.00
2022-11-20T06:35:39.257Z,100.00
2022-11-20T06:36:40.762Z,100.00
2022-11-20T06:37:43.154Z,100.00
2022-11-20T06:38:45.284Z,100.00
2022-11-20T06:39:46.886Z,100.00
2022-11-20T06:40:48.514Z,100.00
2022-11-20T06:41:52.222Z,100.00
2022-11-20T06:42:55.960Z,100.00
2022-11-20T06:43:57.557Z,100.00
2022-11-20T06:44:59.072Z,100.00
2022-11-20T06:46:00.723Z,100.00
2022-11-20T06:47:02.234Z,100.00
2022-11-20T06:48:04.626Z,100.00
2022-11-20T06:49:06.168Z,99.48
2022-11-20T06:50:07.921Z,97.16
2022-11-20T06:51:09.810Z,95.87
2022-11-20T06:52:11.379Z,95.33
2022-11-20T06:53:12.922Z,94.75
2022-11-20T06:54:14.397Z,94.38
2022-11-20T06:55:15.749Z,93.93
2022-11-20T06:56:17.274Z,93.66
2022-11-20T06:57:18.650Z,93.51
2022-11-20T06:58:20.226Z,92.61
2022-11-20T06:59:21.910Z,91.60
2022-11-20T07:00:23.658Z,90.49
2022-11-20T07:01:25.247Z,89.86
2022-11-20T07:02:26.808Z,89.47
2022-11-20T07:03:28.391Z,89.18
2022-11-20T07:04:29.951Z,89.23
2022-11-20T07:05:31.572Z,89.13
2022-11-20T07:06:33.084Z,88.77
2022-11-20T07:07:34.690Z,88.61
2022-11-20T07:08:36.786Z,88.10
2022-11-20T07:09:38.325Z,87.83
2022-11-20T07:10:39.874Z,86.87
2022-11-20T07:11:41.336Z,86.25
2022-11-20T07:12:42.782Z,85.35
2022-11-20T07:13:44.173Z,84.65
2022-11-20T07:14:45.729Z,83.75
2022-11-20T07:15:47.224Z,82.91
2022-11-20T07:16:48.712Z,82.31
2022-11-20T07:17:50.192Z,82.34
2022-11-20T07:18:51.676Z,81.63
2022-11-20T07:19:53.021Z,81.11
2022-11-20T07:20:54.477Z,80.16
2022-11-20T07:21:55.958Z,79.62
2022-11-20T07:22:58.008Z,78.97
2022-11-20T07:23:59.444Z,78.31
2022-11-20T07:25:00.937Z,77.98
2022-11-20T07:26:09.957Z,77.81
2022-11-20T07:27:11.421Z,76.52
2022-11-20T07:28:12.831Z,76.39
2022-11-20T07:29:14.340Z,76.65
2022-11-20T07:30:17.334Z,76.15
2022-11-20T07:31:19.783Z,76.00
2022-11-20T07:32:21.552Z,76.45
2022-11-20T07:33:23.013Z,77.12
2022-11-20T07:34:24.869Z,76.54
2022-11-20T07:35:26.523Z,77.19
2022-11-20T07:36:27.985Z,77.13
2022-11-20T07:37:29.476Z,77.28
2022-11-20T07:38:31.156Z,78.83
2022-11-20T07:39:32.634Z,80.22
2022-11-20T07:40:34.165Z,81.06
2022-11-20T07:41:35.528Z,80.92
2022-11-20T07:42:36.981Z,82.11
2022-11-20T07:43:41.259Z,82.91
2022-11-20T07:44:43.157Z,83.55
2022-11-20T07:45:44.532Z,83.63
2022-11-20T07:46:45.996Z,83.62
2022-11-20T07:47:47.613Z,83.32
2022-11-20T07:48:49.088Z,83.41
2022-11-20T07:49:50.470Z,82.18
2022-11-20T07:50:56.105Z,81.84
2022-11-20T07:52:03.104Z,82.53
2022-11-20T07:53:06.443Z,83.85
2022-11-20T07:54:07.912Z,84.20
2022-11-20T07:55:10.222Z,84.48
2022-11-20T07:56:11.680Z,84.17
2022-11-20T07:57:13.254Z,83.44
2022-11-20T07:58:14.839Z,84.23
2022-11-20T07:59:16.815Z,85.41
2022-11-20T08:00:18.450Z,85.65
2022-11-20T08:01:20.049Z,85.97
2022-11-20T08:02:21.590Z,85.40
2022-11-20T08:03:25.074Z,85.54
2022-11-20T08:04:27.442Z,85.77
2022-11-20T08:05:31.618Z,85.74
2022-11-20T08:06:33.443Z,85.47
2022-11-20T08:07:43.693Z,85.99
2022-11-20T08:08:45.262Z,86.63
2022-11-20T08:09:46.597Z,86.45
2022-11-20T08:10:48.091Z,87.22
2022-11-20T08:11:49.592Z,88.06
2022-11-20T08:12:52.432Z,88.53
2022-11-20T08:13:53.993Z,89.75
2022-11-20T08:14:55.460Z,91.41
2022-11-20T08:15:56.839Z,91.50
2022-11-20T08:16:58.337Z,91.59
2022-11-20T08:18:28.917Z,91.45
2022-11-20T08:19:22.350Z,91.25
2022-11-20T08:20:24.235Z,90.69
2022-11-20T08:21:25.728Z,90.71
2022-11-20T08:22:27.649Z,89.77
2022-11-20T08:23:29.142Z,89.13
2022-11-20T08:24:30.606Z,88.67
2022-11-20T08:25:33.038Z,88.63
2022-11-20T08:26:36.350Z,87.53
2022-11-20T08:27:39.003Z,86.54
2022-11-20T08:28:40.523Z,86.06
2022-11-20T08:29:42.011Z,85.47
2022-11-20T08:30:43.497Z,85.06
2022-11-20T08:31:45.079Z,84.24
2022-11-20T08:32:46.577Z,84.07
2022-11-20T08:33:48.045Z,83.71
2022-11-20T08:34:49.524Z,83.41
2022-11-20T08:35:51.018Z,84.01
2022-11-20T08:36:52.509Z,85.51
2022-11-20T08:37:54.034Z,86.17
2022-11-20T08:38:56.477Z,87.21
2022-11-20T08:39:57.961Z,87.92
2022-11-20T08:41:04.597Z,88.84
2022-11-20T08:42:09.210Z,89.10
2022-11-20T08:43:10.671Z,89.22
2022-11-20T08:44:12.019Z,90.29
2022-11-20T08:45:13.568Z,91.44
2022-11-20T08:46:15.451Z,92.18
2022-11-20T08:47:16.909Z,92.52
2022-11-20T08:48:18.253Z,92.98
2022-11-20T08:49:20.106Z,93.45
2022-11-20T08:50:21.875Z,93.17
2022-11-20T08:51:23.357Z,92.93
2022-11-20T08:52:24.857Z,92.58
2022-11-20T08:53:27.568Z,92.99
2022-11-20T08:54:29.278Z,94.24
2022-11-20T08:55:30.612Z,94.50
2022-11-20T08:56:32.431Z,94.34
2022-11-20T08:57:37.637Z,94.64
2022-11-20T08:59:09.801Z,94.62
2022-11-20T09:00:06.405Z,94.47
2022-11-20T09:01:08.597Z,94.66
2022-11-20T09:02:10.273Z,94.79
2022-11-20T09:03:11.865Z,95.70
2022-11-20T09:04:13.350Z,96.19
2022-11-20T09:05:14.931Z,96.40
2022-11-20T09:06:17.059Z,96.78
2022-11-20T09:07:18.595Z,97.20
2022-11-20T09:08:20.139Z,97.36
2022-11-20T09:09:21.969Z,97.22
2022-11-20T09:10:24.848Z,96.70
2022-11-20T09:11:26.741Z,95.82
2022-11-20T09:12:28.208Z,94.92
2022-11-20T09:13:30.294Z,94.39
2022-11-20T09:14:31.662Z,93.70
2022-11-20T09:15:33.434Z,93.50
2022-11-20T09:16:34.947Z,93.85
2022-11-20T09:17:36.436Z,94.07
2022-11-20T09:18:38.196Z,94.18
2022-11-20T09:19:40.136Z,94.39
2022-11-20T09:20:41.670Z,94.31
2022-11-20T09:21:43.200Z,94.53
2022-11-20T09:22:44.676Z,95.50
2022-11-20T09:23:46.170Z,95.93
2022-11-20T09:24:47.658Z,95.52
2022-11-20T09:25:49.171Z,95.51
2022-11-20T09:26:50.646Z,95.43
2022-11-20T09:28:00.977Z,95.44
2022-11-20T09:29:02.481Z,95.13
2022-11-20T09:30:04.882Z,95.01
2022-11-20T09:31:14.899Z,94.79
2022-11-20T09:32:16.373Z,94.41
2022-11-20T09:33:18.113Z,94.81
2022-11-20T09:34:19.577Z,94.75
2022-11-20T09:35:20.925Z,94.60
2022-11-20T09:36:22.410Z,94.96
2022-11-20T09:37:24.301Z,95.92
2022-11-20T09:38:25.873Z,96.67
2022-11-20T09:39:27.349Z,96.97
2022-11-20T09:40:29.760Z,96.94
2022-11-20T09:42:03.608Z,97.30
2022-11-20T09:43:22.988Z,96.21
2022-11-20T09:44:55.287Z,95.30
2022-11-20T09:46:30.929Z,94.56
2022-11-20T09:47:48.149Z,94.75
2022-11-20T09:49:04.535Z,94.94
2022-11-20T09:50:27.756Z,94.79
2022-11-20T09:51:54.410Z,95.15
2022-11-20T09:53:25.017Z,95.76
2022-11-20T09:54:37.029Z,96.13
2022-11-20T09:55:39.454Z,96.37
2022-11-20T09:56:45.546Z,96.59
2022-11-20T09:57:51.611Z,96.81
2022-11-20T09:58:58.520Z,96.90
2022-11-20T10:00:06.298Z,97.51
2022-11-20T10:01:18.014Z,97.77
2022-11-20T10:02:25.598Z,98.15
2022-11-20T10:04:04.330Z,98.64
2022-11-20T10:05:24.253Z,100.00
2022-11-20T10:06:32.014Z,100.00
2022-11-20T10:07:33.598Z,100.00
2022-11-20T10:08:48.406Z,100.00
2022-11-20T10:09:59.377Z,100.00
2022-11-20T10:11:17.533Z,100.00
2022-11-20T10:12:36.998Z,100.00
2022-11-20T10:13:54.762Z,100.00
2022-11-20T10:15:33.511Z,100.00
2022-11-20T10:16:51.938Z,100.00
2022-11-20T10:18:10.026Z,100.00
2022-11-20T10:19:41.372Z,99.94
2022-11-20T10:21:04.345Z,100.00
2022-11-20T10:22:12.668Z,100.00
2022-11-20T10:23:58.528Z,100.00
2022-11-20T10:25:34.920Z,100.00
2022-11-20T10:27:04.960Z,100.00
2022-11-20T10:28:21.360Z,100.00
2022-11-20T10:29:44.926Z,100.00
2022-11-20T10:30:51.018Z,100.00
2022-11-20T10:32:00.957Z,100.00
2022-11-20T10:33:14.015Z,100.00
2022-11-20T10:34:53.200Z,100.00
2022-11-20T10:36:33.403Z,100.00
2022-11-20T10:37:37.805Z,100.00
2022-11-20T10:38:44.068Z,100.00
2022-11-20T10:39:51.812Z,100.00
2022-11-20T10:41:00.134Z,100.00
2022-11-20T10:42:01.983Z,100.00
2022-11-20T10:43:27.852Z,100.00
2022-11-20T10:44:30.701Z,100.00
2022-11-20T10:45:46.507Z,100.00
2022-11-20T10:46:48.014Z,100.00
2022-11-20T10:47:49.758Z,100.00
2022-11-20T10:48:52.148Z,100.00
2022-11-20T10:49:56.558Z,100.00
2022-11-20T10:51:36.084Z,100.00
2022-11-20T10:53:02.314Z,100.00
2022-11-20T10:54:06.917Z,100.00
2022-11-20T10:55:17.434Z,100.00
2022-11-20T10:56:26.086Z,100.00
2022-11-20T10:57:57.946Z,100.00
2022-11-20T10:59:12.784Z,100.00
2022-11-20T11:00:15.237Z,100.00
2022-11-20T11:01:19.375Z,100.00
2022-11-20T11:02:22.149Z,99.62
2022-11-20T11:03:28.264Z,100.00
2022-11-20T11:04:29.697Z,100.00
2022-11-20T11:05:37.453Z,99.30
2022-11-20T11:06:47.943Z,100.00
2022-11-20T11:07:56.297Z,100.00
2022-11-20T11:09:02.045Z,99.88
2022-11-20T11:10:25.620Z,100.00
2022-11-20T11:11:34.207Z,99.68
2022-11-20T11:12:35.686Z,100.00
2022-11-20T11:13:37.171Z,100.00
2022-11-20T11:14:50.151Z,100.00
2022-11-20T11:15:52.308Z,99.75
2022-11-20T11:16:56.339Z,99.35
2022-11-20T11:17:57.861Z,100.00
2022-11-20T11:19:06.925Z,100.00
2022-11-20T11:20:11.198Z,100.00
2022-11-20T11:21:12.725Z,100.00
2022-11-20T11:22:19.065Z,100.00
2022-11-20T11:23:32.235Z,100.00
2022-11-20T11:24:42.365Z,100.00
2022-11-20T11:25:58.094Z,100.00
2022-11-20T11:27:02.165Z,100.00
2022-11-20T11:28:23.718Z,100.00
2022-11-20T11:29:25.982Z,100.00
2022-11-20T11:30:29.185Z,100.00
2022-11-20T11:31:35.986Z,98.75
2022-11-20T11:32:37.485Z,98.28
2022-11-20T11:33:39.389Z,97.72
2022-11-20T11:34:40.965Z,98.27
2022-11-20T11:35:51.365Z,99.30
2022-11-20T11:36:58.056Z,100.00
2022-11-20T11:38:13.453Z,99.51
2022-11-20T11:39:21.199Z,99.31
2022-11-20T11:40:24.606Z,99.79
2022-11-20T11:41:31.513Z,99.51
2022-11-20T11:42:33.122Z,98.71
2022-11-20T11:43:37.914Z,99.47
2022-11-20T11:44:46.075Z,99.39
2022-11-20T11:45:54.918Z,99.08
2022-11-20T11:46:57.785Z,99.33
2022-11-20T11:48:04.592Z,98.73
2022-11-20T11:49:06.023Z,99.33
2022-11-20T11:50:10.381Z,99.13
2022-11-20T11:51:11.852Z,97.47
2022-11-20T11:52:18.640Z,98.36
2022-11-20T11:53:22.681Z,99.63
2022-11-20T11:54:28.386Z,100.00
2022-11-20T11:55:38.679Z,100.00
2022-11-20T11:56:40.500Z,100.00
2022-11-20T11:57:59.300Z,100.00
2022-11-20T11:59:09.649Z,100.00
2022-11-20T12:00:13.914Z,100.00
2022-11-20T12:01:33.542Z,100.00
2022-11-20T12:02:46.803Z,100.00
2022-11-20T12:04:29.430Z,100.00
2022-11-20T12:05:44.833Z,100.00
2022-11-20T12:06:52.622Z,100.00
2022-11-20T12:08:01.736Z,100.00
2022-11-20T12:09:09.041Z,100.00
2022-11-20T12:10:30.291Z,100.00
2022-11-20T12:11:43.494Z,100.00
2022-11-20T12:12:50.944Z,100.00
2022-11-20T12:13:59.320Z,100.00
2022-11-20T12:15:00.889Z,100.00
2022-11-20T12:16:04.190Z,100.00
2022-11-20T12:17:06.052Z,100.00
2022-11-20T12:18:18.457Z,100.00
2022-11-20T12:19:20.044Z,100.00
2022-11-20T12:20:26.241Z,100.00
2022-11-20T12:21:38.980Z,100.00
2022-11-20T12:22:57.243Z,100.00
2022-11-20T12:24:10.846Z,100.00
2022-11-20T12:25:22.756Z,100.00
2022-11-20T12:26:35.748Z,100.00
2022-11-20T12:27:52.159Z,100.00
2022-11-20T12:29:02.578Z,100.00
2022-11-20T12:30:09.986Z,100.00
2022-11-20T12:31:48.657Z,100.00
2022-11-20T12:32:59.147Z,100.00
2022-11-20T12:34:43.818Z,100.00
2022-11-20T12:36:08.888Z,100.00
2022-11-20T12:37:31.574Z,100.00
2022-11-20T12:39:23.270Z,100.00
2022-11-20T12:40:58.126Z,100.00
2022-11-20T12:42:05.319Z,100.00
2022-11-20T12:43:14.893Z,100.00
2022-11-20T12:44:35.874Z,100.00
2022-11-20T12:46:18.101Z,100.00
2022-11-20T12:47:22.550Z,100.00
2022-11-20T12:48:34.693Z,100.00
2022-11-20T12:49:43.634Z,100.00
2022-11-20T12:51:18.904Z,100.00
2022-11-20T12:52:44.458Z,100.00
2022-11-20T12:53:48.571Z,100.00
2022-11-20T12:55:11.461Z,100.00
2022-11-20T12:56:22.061Z,100.00
2022-11-20T12:57:42.453Z,100.00
2022-11-20T12:59:02.941Z,100.00
2022-11-20T13:00:07.355Z,100.00
2022-11-20T13:01:23.836Z,100.00
2022-11-20T13:02:34.909Z,100.00
2022-11-20T13:03:49.834Z,100.00
2022-11-20T13:05:09.868Z,100.00
2022-11-20T13:06:19.820Z,100.00
2022-11-20T13:07:23.487Z,100.00
2022-11-20T13:08:29.069Z,100.00
2022-11-20T13:09:31.607Z,100.00
2022-11-20T13:10:52.872Z,100.00
2022-11-20T13:12:07.391Z,100.00
2022-11-20T13:13:17.030Z,100.00
2022-11-20T13:14:33.917Z,100.00
2022-11-20T13:15:57.604Z,100.00
2022-11-20T13:17:09.430Z,100.00
2022-11-20T13:18:12.512Z,100.00
2022-11-20T13:19:16.874Z,100.00
2022-11-20T13:20:20.064Z,100.00
2022-11-20T13:21:35.493Z,100.00
2022-11-20T13:22:45.991Z,100.00
2022-11-20T13:23:48.330Z,100.00
2022-11-20T13:24:52.733Z,100.00
2022-11-20T13:26:15.948Z,100.00
2022-11-20T13:27:19.560Z,100.00
2022-11-20T13:28:20.965Z,100.00
2022-11-20T13:29:22.329Z,100.00
2022-11-20T13:30:26.708Z,100.00
2022-11-20T13:31:34.582Z,100.00
2022-11-20T13:32:36.138Z,100.00
2022-11-20T13:33:39.574Z,100.00
2022-11-20T13:34:55.799Z,100.00
2022-11-20T13:35:58.663Z,100.00
2022-11-20T13:37:01.034Z,100.00
2022-11-20T13:38:07.426Z,100.00
2022-11-20T13:39:09.904Z,100.00
2022-11-20T13:40:11.307Z,100.00
2022-11-20T13:41:12.817Z,100.00